sensor_id;sensor_type;location;lat;lon;timestamp;pressure;altitude;pressure_sealevel;temperature;humidity
72950;BME280;64868;45.710;9.590;2023-03-24T00:00:50;98912.72;;;12.24;65.18
72950;BME280;64868;45.710;9.590;2023-03-24T00:03:21;98914.22;;;12.28;65.42
72950;BME280;64868;45.710;9.590;2023-03-24T00:05:57;98862.03;;;12.20;65.26
72950;BME280;64868;45.710;9.590;2023-03-24T00:08:30;98884.47;;;12.35;65.98
72950;BME280;64868;45.710;9.590;2023-03-24T00:11:11;98902.97;;;12.54;64.98
72950;BME280;64868;45.710;9.590;2023-03-24T00:13:43;98876.53;;;12.43;66.09
72950;BME280;64868;45.710;9.590;2023-03-24T00:16:16;98881.72;;;12.46;66.28
72950;BME280;64868;45.710;9.590;2023-03-24T00:18:46;98906.59;;;12.54;66.69
72950;BME280;64868;45.710;9.590;2023-03-24T00:21:19;98907.72;;;12.52;66.55
72950;BME280;64868;45.710;9.590;2023-03-24T00:23:52;98896.91;;;12.50;65.54
72950;BME280;64868;45.710;9.590;2023-03-24T00:26:28;98891.56;;;12.49;65.56
72950;BME280;64868;45.710;9.590;2023-03-24T00:29:01;98897.16;;;12.47;65.76
72950;BME280;64868;45.710;9.590;2023-03-24T00:31:31;98904.69;;;12.66;64.40
72950;BME280;64868;45.710;9.590;2023-03-24T00:33:59;98915.97;;;12.73;64.25
72950;BME280;64868;45.710;9.590;2023-03-24T00:36:31;98871.31;;;12.40;64.51
72950;BME280;64868;45.710;9.590;2023-03-24T00:39:00;98898.00;;;12.59;65.08
72950;BME280;64868;45.710;9.590;2023-03-24T00:41:32;98894.88;;;12.63;64.19
72950;BME280;64868;45.710;9.590;2023-03-24T00:44:03;98871.94;;;12.44;65.00
72950;BME280;64868;45.710;9.590;2023-03-24T00:46:35;98795.31;;;12.11;64.71
72950;BME280;64868;45.710;9.590;2023-03-24T00:49:09;98893.88;;;12.64;64.49
72950;BME280;64868;45.710;9.590;2023-03-24T00:51:41;98891.88;;;12.78;63.94
72950;BME280;64868;45.710;9.590;2023-03-24T00:54:12;98877.84;;;12.60;64.77
72950;BME280;64868;45.710;9.590;2023-03-24T00:56:42;98895.72;;;12.75;65.08
72950;BME280;64868;45.710;9.590;2023-03-24T00:59:15;98886.47;;;12.44;62.95
72950;BME280;64868;45.710;9.590;2023-03-24T01:01:48;98874.94;;;11.84;64.55
72950;BME280;64868;45.710;9.590;2023-03-24T01:04:18;98892.66;;;11.56;65.83
72950;BME280;64868;45.710;9.590;2023-03-24T01:06:46;98900.19;;;11.41;66.45
72950;BME280;64868;45.710;9.590;2023-03-24T01:09:16;98875.94;;;11.14;66.90
72950;BME280;64868;45.710;9.590;2023-03-24T01:11:49;98889.44;;;11.16;67.48
72950;BME280;64868;45.710;9.590;2023-03-24T01:14:21;98860.88;;;11.09;67.85
72950;BME280;64868;45.710;9.590;2023-03-24T01:16:49;98872.63;;;10.98;67.91
72950;BME280;64868;45.710;9.590;2023-03-24T01:19:22;98860.53;;;10.78;68.48
72950;BME280;64868;45.710;9.590;2023-03-24T01:21:54;98877.75;;;10.79;69.41
72950;BME280;64868;45.710;9.590;2023-03-24T01:24:26;98877.19;;;10.62;70.00
72950;BME280;64868;45.710;9.590;2023-03-24T01:26:59;98867.00;;;10.53;69.90
72950;BME280;64868;45.710;9.590;2023-03-24T01:29:29;98846.16;;;10.52;69.61
72950;BME280;64868;45.710;9.590;2023-03-24T01:31:59;98870.97;;;10.60;70.02
72950;BME280;64868;45.710;9.590;2023-03-24T01:34:32;98841.91;;;10.48;69.75
72950;BME280;64868;45.710;9.590;2023-03-24T01:37:02;98862.50;;;10.76;68.48
72950;BME280;64868;45.710;9.590;2023-03-24T01:39:35;98838.84;;;10.53;69.14
72950;BME280;64868;45.710;9.590;2023-03-24T01:42:07;98852.84;;;10.72;69.10
72950;BME280;64868;45.710;9.590;2023-03-24T01:44:39;98860.22;;;10.94;68.28
72950;BME280;64868;45.710;9.590;2023-03-24T01:47:12;98852.75;;;10.85;68.22
72950;BME280;64868;45.710;9.590;2023-03-24T01:49:45;98827.41;;;10.71;68.33
72950;BME280;64868;45.710;9.590;2023-03-24T01:52:20;98864.16;;;10.90;68.42
72950;BME280;64868;45.710;9.590;2023-03-24T01:55:04;98853.84;;;11.06;67.77
72950;BME280;64868;45.710;9.590;2023-03-24T01:57:40;98847.44;;;10.94;68.37
72950;BME280;64868;45.710;9.590;2023-03-24T02:00:13;98847.69;;;10.91;68.88
72950;BME280;64868;45.710;9.590;2023-03-24T02:02:52;98818.16;;;10.85;68.30
72950;BME280;64868;45.710;9.590;2023-03-24T02:05:26;98821.25;;;10.81;68.46
72950;BME280;64868;45.710;9.590;2023-03-24T02:10:45;98825.66;;;10.70;68.23
72950;BME280;64868;45.710;9.590;2023-03-24T02:13:18;98821.72;;;10.75;68.90
72950;BME280;64868;45.710;9.590;2023-03-24T02:18:49;98829.84;;;10.87;68.04
72950;BME280;64868;45.710;9.590;2023-03-24T02:33:08;98788.06;;;10.28;69.40
72950;BME280;64868;45.710;9.590;2023-03-24T02:36:04;98840.81;;;10.51;70.02
72950;BME280;64868;45.710;9.590;2023-03-24T02:41:36;98817.44;;;10.59;69.89
72950;BME280;64868;45.710;9.590;2023-03-24T02:44:26;98807.88;;;10.54;68.88
72950;BME280;64868;45.710;9.590;2023-03-24T02:50:25;98815.66;;;10.47;69.80
72950;BME280;64868;45.710;9.590;2023-03-24T02:53:16;98809.91;;;10.39;69.54
72950;BME280;64868;45.710;9.590;2023-03-24T02:55:55;98809.16;;;10.37;70.11
72950;BME280;64868;45.710;9.590;2023-03-24T02:58:39;98805.91;;;10.32;69.75
72950;BME280;64868;45.710;9.590;2023-03-24T03:01:21;98806.13;;;10.29;69.72
72950;BME280;64868;45.710;9.590;2023-03-24T03:04:02;98807.31;;;10.24;70.25
72950;BME280;64868;45.710;9.590;2023-03-24T03:06:33;98810.03;;;10.24;70.37
72950;BME280;64868;45.710;9.590;2023-03-24T03:09:13;98808.88;;;10.16;70.55
72950;BME280;64868;45.710;9.590;2023-03-24T03:11:48;98795.13;;;10.30;69.26
72950;BME280;64868;45.710;9.590;2023-03-24T03:14:40;98782.53;;;10.04;69.88
72950;BME280;64868;45.710;9.590;2023-03-24T03:17:18;98767.69;;;9.96;70.39
72950;BME280;64868;45.710;9.590;2023-03-24T03:19:53;98799.84;;;10.15;70.38
72950;BME280;64868;45.710;9.590;2023-03-24T03:22:29;98767.97;;;10.05;70.10
72950;BME280;64868;45.710;9.590;2023-03-24T03:25:06;98748.28;;;9.88;70.16
72950;BME280;64868;45.710;9.590;2023-03-24T03:27:40;98791.56;;;10.17;69.94
72950;BME280;64868;45.710;9.590;2023-03-24T03:30:15;98783.03;;;10.21;69.68
72950;BME280;64868;45.710;9.590;2023-03-24T03:32:48;98777.91;;;10.30;69.86
72950;BME280;64868;45.710;9.590;2023-03-24T03:35:25;98736.59;;;9.99;70.36
72950;BME280;64868;45.710;9.590;2023-03-24T03:38:17;98778.91;;;10.29;69.79
72950;BME280;64868;45.710;9.590;2023-03-24T03:40:58;98762.59;;;10.16;69.98
72950;BME280;64868;45.710;9.590;2023-03-24T03:43:29;98764.66;;;10.12;69.60
72950;BME280;64868;45.710;9.590;2023-03-24T03:46:01;98751.03;;;10.12;69.95
72950;BME280;64868;45.710;9.590;2023-03-24T03:48:35;98766.19;;;10.40;69.26
72950;BME280;64868;45.710;9.590;2023-03-24T03:51:08;98748.84;;;10.17;69.35
72950;BME280;64868;45.710;9.590;2023-03-24T03:53:48;98769.44;;;10.45;68.36
72950;BME280;64868;45.710;9.590;2023-03-24T03:56:22;98778.59;;;10.44;68.72
72950;BME280;64868;45.710;9.590;2023-03-24T03:58:56;98755.69;;;10.47;68.81
72950;BME280;64868;45.710;9.590;2023-03-24T04:01:30;98764.81;;;10.70;68.20
72950;BME280;64868;45.710;9.590;2023-03-24T04:09:37;98733.63;;;10.39;69.28
72950;BME280;64868;45.710;9.590;2023-03-24T04:12:17;98743.94;;;10.46;68.35
72950;BME280;64868;45.710;9.590;2023-03-24T04:15:33;98758.63;;;10.79;67.95
72950;BME280;64868;45.710;9.590;2023-03-24T04:18:21;98750.28;;;10.58;68.44
72950;BME280;64868;45.710;9.590;2023-03-24T04:23:50;98759.16;;;10.49;68.80
72950;BME280;64868;45.710;9.590;2023-03-24T04:26:58;98761.19;;;10.58;68.51
72950;BME280;64868;45.710;9.590;2023-03-24T04:29:49;98738.97;;;10.52;68.18
72950;BME280;64868;45.710;9.590;2023-03-24T04:32:23;98765.91;;;10.67;68.23
72950;BME280;64868;45.710;9.590;2023-03-24T04:35:08;98764.59;;;10.73;68.67
72950;BME280;64868;45.710;9.590;2023-03-24T04:37:41;98775.34;;;10.75;68.52
72950;BME280;64868;45.710;9.590;2023-03-24T04:40:15;98750.16;;;10.60;68.10
72950;BME280;64868;45.710;9.590;2023-03-24T04:42:53;98764.31;;;10.65;68.23
72950;BME280;64868;45.710;9.590;2023-03-24T04:45:25;98776.72;;;10.69;67.80
72950;BME280;64868;45.710;9.590;2023-03-24T04:47:59;98766.63;;;10.58;67.53
72950;BME280;64868;45.710;9.590;2023-03-24T04:50:42;98791.94;;;10.71;67.43
72950;BME280;64868;45.710;9.590;2023-03-24T04:53:15;98800.19;;;10.94;67.51
72950;BME280;64868;45.710;9.590;2023-03-24T04:55:58;98750.06;;;10.61;68.53
72950;BME280;64868;45.710;9.590;2023-03-24T04:58:29;98792.25;;;10.91;67.24
72950;BME280;64868;45.710;9.590;2023-03-24T05:01:02;98782.94;;;10.82;67.48
72950;BME280;64868;45.710;9.590;2023-03-24T05:03:32;98784.22;;;10.89;67.87
72950;BME280;64868;45.710;9.590;2023-03-24T05:06:04;98798.97;;;10.98;67.31
72950;BME280;64868;45.710;9.590;2023-03-24T05:08:37;98771.16;;;10.82;67.58
72950;BME280;64868;45.710;9.590;2023-03-24T05:11:09;98774.28;;;10.88;67.66
72950;BME280;64868;45.710;9.590;2023-03-24T05:13:40;98762.84;;;10.72;68.19
72950;BME280;64868;45.710;9.590;2023-03-24T05:16:13;98761.72;;;10.75;68.84
72950;BME280;64868;45.710;9.590;2023-03-24T05:18:44;98784.81;;;10.82;68.00
72950;BME280;64868;45.710;9.590;2023-03-24T05:21:16;98777.00;;;10.77;67.47
72950;BME280;64868;45.710;9.590;2023-03-24T05:23:47;98765.72;;;10.82;67.67
72950;BME280;64868;45.710;9.590;2023-03-24T05:26:19;98774.41;;;10.87;67.94
72950;BME280;64868;45.710;9.590;2023-03-24T05:28:52;98784.84;;;10.93;67.08
72950;BME280;64868;45.710;9.590;2023-03-24T05:31:24;98781.88;;;10.96;67.38
72950;BME280;64868;45.710;9.590;2023-03-24T05:33:57;98789.22;;;11.07;66.96
72950;BME280;64868;45.710;9.590;2023-03-24T05:36:30;98803.00;;;11.16;65.93
72950;BME280;64868;45.710;9.590;2023-03-24T05:39:03;98798.16;;;11.20;66.17
72950;BME280;64868;45.710;9.590;2023-03-24T05:41:35;98793.31;;;11.24;65.12
72950;BME280;64868;45.710;9.590;2023-03-24T05:44:06;98809.69;;;11.24;66.29
72950;BME280;64868;45.710;9.590;2023-03-24T05:46:38;98793.72;;;11.30;64.86
72950;BME280;64868;45.710;9.590;2023-03-24T05:49:11;98801.66;;;11.33;65.42
72950;BME280;64868;45.710;9.590;2023-03-24T05:51:43;98817.28;;;11.42;64.38
72950;BME280;64868;45.710;9.590;2023-03-24T05:54:13;98804.03;;;11.49;64.99
72950;BME280;64868;45.710;9.590;2023-03-24T05:56:46;98790.38;;;11.38;64.38
72950;BME280;64868;45.710;9.590;2023-03-24T05:59:18;98804.91;;;11.50;65.04
72950;BME280;64868;45.710;9.590;2023-03-24T06:01:51;98802.78;;;11.42;65.40
72950;BME280;64868;45.710;9.590;2023-03-24T06:04:22;98812.22;;;11.60;64.72
72950;BME280;64868;45.710;9.590;2023-03-24T06:06:52;98813.72;;;11.76;63.90
72950;BME280;64868;45.710;9.590;2023-03-24T06:09:25;98765.56;;;11.52;62.86
72950;BME280;64868;45.710;9.590;2023-03-24T06:11:58;98816.84;;;11.93;63.98
72950;BME280;64868;45.710;9.590;2023-03-24T06:14:26;98801.72;;;11.89;63.12
72950;BME280;64868;45.710;9.590;2023-03-24T06:16:58;98815.84;;;12.06;63.18
72950;BME280;64868;45.710;9.590;2023-03-24T06:19:31;98800.56;;;12.03;63.70
72950;BME280;64868;45.710;9.590;2023-03-24T06:22:01;98798.56;;;12.16;62.93
72950;BME280;64868;45.710;9.590;2023-03-24T06:24:36;98817.31;;;12.21;62.11
72950;BME280;64868;45.710;9.590;2023-03-24T06:27:06;98823.63;;;12.22;63.18
72950;BME280;64868;45.710;9.590;2023-03-24T06:29:36;98820.66;;;12.25;62.24
72950;BME280;64868;45.710;9.590;2023-03-24T06:32:09;98809.56;;;12.37;61.04
72950;BME280;64868;45.710;9.590;2023-03-24T06:34:39;98812.31;;;12.26;61.79
72950;BME280;64868;45.710;9.590;2023-03-24T06:37:12;98823.34;;;12.47;60.90
72950;BME280;64868;45.710;9.590;2023-03-24T06:39:44;98807.72;;;12.27;61.53
72950;BME280;64868;45.710;9.590;2023-03-24T06:42:14;98815.28;;;12.34;62.31
72950;BME280;64868;45.710;9.590;2023-03-24T06:44:47;98809.47;;;12.28;62.70
72950;BME280;64868;45.710;9.590;2023-03-24T06:47:20;98840.00;;;12.33;62.63
72950;BME280;64868;45.710;9.590;2023-03-24T06:49:52;98809.81;;;12.23;62.97
72950;BME280;64868;45.710;9.590;2023-03-24T06:52:23;98812.69;;;12.33;61.76
72950;BME280;64868;45.710;9.590;2023-03-24T06:54:53;98840.16;;;12.31;62.69
72950;BME280;64868;45.710;9.590;2023-03-24T06:57:26;98823.00;;;12.29;62.47
72950;BME280;64868;45.710;9.590;2023-03-24T06:59:58;98838.09;;;12.56;62.15
72950;BME280;64868;45.710;9.590;2023-03-24T07:02:29;98810.41;;;12.38;61.70
72950;BME280;64868;45.710;9.590;2023-03-24T07:05:05;98820.56;;;12.58;61.18
72950;BME280;64868;45.710;9.590;2023-03-24T07:07:38;98823.13;;;12.71;61.45
72950;BME280;64868;45.710;9.590;2023-03-24T07:10:11;98834.97;;;12.93;60.96
72950;BME280;64868;45.710;9.590;2023-03-24T07:12:39;98815.75;;;13.04;60.35
72950;BME280;64868;45.710;9.590;2023-03-24T07:15:13;98832.72;;;13.19;60.37
72950;BME280;64868;45.710;9.590;2023-03-24T07:17:44;98838.69;;;13.24;60.60
72950;BME280;64868;45.710;9.590;2023-03-24T07:20:12;98821.44;;;13.12;60.46
72950;BME280;64868;45.710;9.590;2023-03-24T07:22:43;98836.81;;;13.24;61.84
72950;BME280;64868;45.710;9.590;2023-03-24T07:25:15;98827.94;;;13.32;62.62
72950;BME280;64868;45.710;9.590;2023-03-24T07:27:46;98847.72;;;13.56;64.41
72950;BME280;64868;45.710;9.590;2023-03-24T07:30:18;98835.13;;;13.54;65.88
72950;BME280;64868;45.710;9.590;2023-03-24T07:32:46;98852.69;;;13.72;66.10
72950;BME280;64868;45.710;9.590;2023-03-24T07:35:16;98836.69;;;13.77;64.88
72950;BME280;64868;45.710;9.590;2023-03-24T07:37:47;98835.16;;;13.84;66.15
72950;BME280;64868;45.710;9.590;2023-03-24T07:40:19;98847.63;;;13.98;65.17
72950;BME280;64868;45.710;9.590;2023-03-24T07:42:52;98833.59;;;13.92;66.09
72950;BME280;64868;45.710;9.590;2023-03-24T07:45:24;98860.06;;;14.02;65.35
72950;BME280;64868;45.710;9.590;2023-03-24T07:47:57;98844.31;;;14.04;65.57
72950;BME280;64868;45.710;9.590;2023-03-24T07:50:30;98805.19;;;13.93;64.18
72950;BME280;64868;45.710;9.590;2023-03-24T07:53:00;98839.31;;;14.19;64.08
72950;BME280;64868;45.710;9.590;2023-03-24T07:55:31;98825.94;;;14.26;63.33
72950;BME280;64868;45.710;9.590;2023-03-24T07:58:01;98837.22;;;14.32;62.70
72950;BME280;64868;45.710;9.590;2023-03-24T08:00:33;98820.00;;;14.21;63.18
72950;BME280;64868;45.710;9.590;2023-03-24T08:03:06;98833.44;;;14.33;62.92
72950;BME280;64868;45.710;9.590;2023-03-24T08:05:38;98858.22;;;14.53;62.81
72950;BME280;64868;45.710;9.590;2023-03-24T08:08:11;98870.41;;;14.39;62.73
72950;BME280;64868;45.710;9.590;2023-03-24T08:10:41;98861.16;;;14.30;63.34
72950;BME280;64868;45.710;9.590;2023-03-24T08:13:14;98850.72;;;14.24;62.82
72950;BME280;64868;45.710;9.590;2023-03-24T08:15:47;98875.00;;;14.29;63.14
72950;BME280;64868;45.710;9.590;2023-03-24T08:18:14;98814.00;;;13.96;63.22
72950;BME280;64868;45.710;9.590;2023-03-24T08:20:47;98877.94;;;14.37;63.15
72950;BME280;64868;45.710;9.590;2023-03-24T08:23:20;98880.22;;;14.32;62.54
72950;BME280;64868;45.710;9.590;2023-03-24T08:25:50;98848.97;;;14.14;62.09
72950;BME280;64868;45.710;9.590;2023-03-24T08:28:23;98847.53;;;14.19;62.69
72950;BME280;64868;45.710;9.590;2023-03-24T08:30:50;98859.75;;;14.36;62.15
72950;BME280;64868;45.710;9.590;2023-03-24T08:33:23;98854.53;;;14.33;62.49
72950;BME280;64868;45.710;9.590;2023-03-24T08:35:53;98851.63;;;14.34;62.49
72950;BME280;64868;45.710;9.590;2023-03-24T08:38:26;98873.44;;;14.36;62.76
72950;BME280;64868;45.710;9.590;2023-03-24T08:41:00;98884.28;;;14.38;62.86
72950;BME280;64868;45.710;9.590;2023-03-24T08:43:35;98854.84;;;14.40;62.99
72950;BME280;64868;45.710;9.590;2023-03-24T08:46:08;98877.66;;;14.40;62.54
72950;BME280;64868;45.710;9.590;2023-03-24T08:48:40;98872.97;;;14.31;62.63
72950;BME280;64868;45.710;9.590;2023-03-24T08:51:15;98874.25;;;14.17;63.07
72950;BME280;64868;45.710;9.590;2023-03-24T08:53:47;98862.59;;;14.25;62.97
72950;BME280;64868;45.710;9.590;2023-03-24T08:56:18;98864.31;;;14.26;62.93
72950;BME280;64868;45.710;9.590;2023-03-24T08:58:51;98815.78;;;14.07;62.78
72950;BME280;64868;45.710;9.590;2023-03-24T09:01:22;98867.66;;;14.29;61.83
72950;BME280;64868;45.710;9.590;2023-03-24T09:03:50;98871.53;;;14.27;63.19
72950;BME280;64868;45.710;9.590;2023-03-24T09:06:20;98889.44;;;14.31;62.80
72950;BME280;64868;45.710;9.590;2023-03-24T09:08:48;98880.78;;;14.26;62.28
72950;BME280;64868;45.710;9.590;2023-03-24T09:11:21;98906.81;;;14.41;61.90
72950;BME280;64868;45.710;9.590;2023-03-24T09:13:49;98883.84;;;14.32;61.73
72950;BME280;64868;45.710;9.590;2023-03-24T09:16:22;98888.72;;;14.29;62.45
72950;BME280;64868;45.710;9.590;2023-03-24T09:18:52;98890.19;;;14.33;61.64
72950;BME280;64868;45.710;9.590;2023-03-24T09:21:24;98901.06;;;14.44;61.98
72950;BME280;64868;45.710;9.590;2023-03-24T09:23:57;98891.63;;;14.37;61.61
72950;BME280;64868;45.710;9.590;2023-03-24T09:26:30;98882.81;;;14.33;62.01
72950;BME280;64868;45.710;9.590;2023-03-24T09:29:02;98898.84;;;14.38;61.22
72950;BME280;64868;45.710;9.590;2023-03-24T09:31:33;98912.03;;;14.44;60.70
72950;BME280;64868;45.710;9.590;2023-03-24T09:34:03;98879.22;;;14.33;60.93
72950;BME280;64868;45.710;9.590;2023-03-24T09:36:35;98857.09;;;14.25;60.56
72950;BME280;64868;45.710;9.590;2023-03-24T09:39:05;98878.84;;;14.47;60.36
72950;BME280;64868;45.710;9.590;2023-03-24T09:41:33;98893.00;;;14.52;60.45
72950;BME280;64868;45.710;9.590;2023-03-24T09:44:04;98875.69;;;14.52;59.35
72950;BME280;64868;45.710;9.590;2023-03-24T09:46:42;98877.47;;;14.63;59.93
72950;BME280;64868;45.710;9.590;2023-03-24T09:49:14;98869.66;;;14.68;59.51
72950;BME280;64868;45.710;9.590;2023-03-24T09:51:48;98864.75;;;14.81;59.41
72950;BME280;64868;45.710;9.590;2023-03-24T09:54:43;98875.19;;;14.97;58.26
72950;BME280;64868;45.710;9.590;2023-03-24T09:57:39;98884.13;;;14.99;59.05
72950;BME280;64868;45.710;9.590;2023-03-24T10:00:30;98876.34;;;14.94;58.78
72950;BME280;64868;45.710;9.590;2023-03-24T10:03:16;98878.66;;;15.08;58.67
72950;BME280;64868;45.710;9.590;2023-03-24T10:05:55;98871.88;;;14.93;58.88
72950;BME280;64868;45.710;9.590;2023-03-24T10:08:43;98884.28;;;15.17;57.68
72950;BME280;64868;45.710;9.590;2023-03-24T10:14:21;98854.53;;;15.12;58.27
72950;BME280;64868;45.710;9.590;2023-03-24T10:17:02;98872.00;;;15.21;59.10
72950;BME280;64868;45.710;9.590;2023-03-24T10:31:10;98858.69;;;14.87;58.75
72950;BME280;64868;45.710;9.590;2023-03-24T10:33:42;98857.81;;;14.77;59.21
72950;BME280;64868;45.710;9.590;2023-03-24T10:36:15;98869.81;;;14.95;59.24
72950;BME280;64868;45.710;9.590;2023-03-24T10:38:46;98848.75;;;14.86;58.91
72950;BME280;64868;45.710;9.590;2023-03-24T10:41:22;98871.72;;;15.04;59.18
72950;BME280;64868;45.710;9.590;2023-03-24T10:43:57;98874.03;;;15.28;58.34
72950;BME280;64868;45.710;9.590;2023-03-24T10:46:29;98874.75;;;15.50;58.21
72950;BME280;64868;45.710;9.590;2023-03-24T10:49:20;98848.16;;;15.31;57.91
72950;BME280;64868;45.710;9.590;2023-03-24T10:51:59;98864.59;;;15.41;57.24
72950;BME280;64868;45.710;9.590;2023-03-24T10:54:31;98859.16;;;15.31;58.17
72950;BME280;64868;45.710;9.590;2023-03-24T10:57:05;98859.53;;;15.55;57.62
72950;BME280;64868;45.710;9.590;2023-03-24T10:59:54;98843.88;;;15.85;56.42
72950;BME280;64868;45.710;9.590;2023-03-24T11:02:33;98844.81;;;16.03;55.70
72950;BME280;64868;45.710;9.590;2023-03-24T11:07:41;98832.84;;;16.50;53.89
72950;BME280;64868;45.710;9.590;2023-03-24T11:10:17;98844.44;;;16.71;53.21
72950;BME280;64868;45.710;9.590;2023-03-24T11:13:01;98849.75;;;17.00;52.81
72950;BME280;64868;45.710;9.590;2023-03-24T11:15:34;98846.31;;;16.98;52.40
72950;BME280;64868;45.710;9.590;2023-03-24T11:18:18;98822.53;;;17.15;51.59
72950;BME280;64868;45.710;9.590;2023-03-24T11:20:51;98832.09;;;17.47;50.58
72950;BME280;64868;45.710;9.590;2023-03-24T11:23:26;98807.09;;;17.92;50.00
72950;BME280;64868;45.710;9.590;2023-03-24T11:26:14;98814.56;;;18.42;48.15
72950;BME280;64868;45.710;9.590;2023-03-24T11:28:57;98818.94;;;18.11;49.22
72950;BME280;64868;45.710;9.590;2023-03-24T11:31:32;98804.31;;;17.84;48.66
72950;BME280;64868;45.710;9.590;2023-03-24T11:36:40;98796.88;;;18.19;49.35
72950;BME280;64868;45.710;9.590;2023-03-24T11:39:18;98801.75;;;18.33;48.55
72950;BME280;64868;45.710;9.590;2023-03-24T11:42:14;98819.06;;;18.52;48.28
72950;BME280;64868;45.710;9.590;2023-03-24T11:44:51;98833.75;;;19.03;47.22
72950;BME280;64868;45.710;9.590;2023-03-24T11:47:35;98816.66;;;19.56;45.43
72950;BME280;64868;45.710;9.590;2023-03-24T11:50:19;98797.44;;;19.87;45.01
72950;BME280;64868;45.710;9.590;2023-03-24T11:52:59;98807.97;;;19.84;45.35
72950;BME280;64868;45.710;9.590;2023-03-24T11:55:43;98801.63;;;20.23;45.13
72950;BME280;64868;45.710;9.590;2023-03-24T11:58:38;98797.88;;;20.07;43.89
72950;BME280;64868;45.710;9.590;2023-03-24T12:01:25;98798.50;;;20.26;43.53
72950;BME280;64868;45.710;9.590;2023-03-24T12:09:37;98794.53;;;20.28;43.72
72950;BME280;64868;45.710;9.590;2023-03-24T12:17:48;98755.00;;;20.51;43.72
72950;BME280;64868;45.710;9.590;2023-03-24T12:23:06;98763.69;;;20.94;42.42
72950;BME280;64868;45.710;9.590;2023-03-24T12:25:48;98760.44;;;21.13;41.91
72950;BME280;64868;45.710;9.590;2023-03-24T12:37:02;98730.94;;;20.74;41.78
72950;BME280;64868;45.710;9.590;2023-03-24T12:39:45;98736.78;;;20.79;41.97
72950;BME280;64868;45.710;9.590;2023-03-24T12:42:18;98719.06;;;19.95;43.63
72950;BME280;64868;45.710;9.590;2023-03-24T12:47:55;98723.84;;;20.09;43.70
72950;BME280;64868;45.710;9.590;2023-03-24T12:50:42;98722.25;;;20.15;43.84
72950;BME280;64868;45.710;9.590;2023-03-24T12:56:40;98707.31;;;19.29;44.85
72950;BME280;64868;45.710;9.590;2023-03-24T12:59:15;98713.50;;;19.48;44.25
72950;BME280;64868;45.710;9.590;2023-03-24T13:01:50;98718.53;;;19.11;45.74
72950;BME280;64868;45.710;9.590;2023-03-24T13:04:26;98715.19;;;18.51;46.98
72950;BME280;64868;45.710;9.590;2023-03-24T13:07:14;98704.28;;;18.33;48.54
72950;BME280;64868;45.710;9.590;2023-03-24T13:15:20;98706.59;;;18.70;47.37
72950;BME280;64868;45.710;9.590;2023-03-24T13:18:01;98711.81;;;18.73;46.29
72950;BME280;64868;45.710;9.590;2023-03-24T13:20:53;98704.16;;;18.67;46.88
72950;BME280;64868;45.710;9.590;2023-03-24T13:23:38;98692.78;;;18.54;46.33
72950;BME280;64868;45.710;9.590;2023-03-24T13:31:41;98682.59;;;19.19;44.45
72950;BME280;64868;45.710;9.590;2023-03-24T13:36:53;98667.25;;;19.01;45.85
72950;BME280;64868;45.710;9.590;2023-03-24T13:39:26;98673.63;;;19.17;45.39
72950;BME280;64868;45.710;9.590;2023-03-24T13:41:56;98655.31;;;19.25;45.69
72950;BME280;64868;45.710;9.590;2023-03-24T13:44:32;98659.22;;;19.38;45.49
72950;BME280;64868;45.710;9.590;2023-03-24T13:47:14;98660.75;;;19.49;44.73
72950;BME280;64868;45.710;9.590;2023-03-24T13:49:51;98647.34;;;19.30;45.36
72950;BME280;64868;45.710;9.590;2023-03-24T13:52:20;98611.31;;;19.07;44.77
72950;BME280;64868;45.710;9.590;2023-03-24T13:54:57;98610.13;;;20.19;43.64
72950;BME280;64868;45.710;9.590;2023-03-24T13:57:28;98634.69;;;20.91;42.16
72950;BME280;64868;45.710;9.590;2023-03-24T14:05:31;98632.16;;;22.44;38.05
72950;BME280;64868;45.710;9.590;2023-03-24T14:08:08;98639.56;;;22.58;37.39
72950;BME280;64868;45.710;9.590;2023-03-24T14:10:46;98618.22;;;21.72;39.23
72950;BME280;64868;45.710;9.590;2023-03-24T14:13:18;98618.69;;;21.31;38.97
72950;BME280;64868;45.710;9.590;2023-03-24T14:15:56;98604.38;;;20.89;40.17
72950;BME280;64868;45.710;9.590;2023-03-24T14:21:01;98616.13;;;20.77;41.04
72950;BME280;64868;45.710;9.590;2023-03-24T14:23:46;98615.59;;;20.96;39.45
72950;BME280;64868;45.710;9.590;2023-03-24T14:26:38;98612.00;;;21.40;39.66
72950;BME280;64868;45.710;9.590;2023-03-24T14:29:40;98605.56;;;21.25;38.26
72950;BME280;64868;45.710;9.590;2023-03-24T14:32:15;98600.72;;;20.74;39.23
72950;BME280;64868;45.710;9.590;2023-03-24T14:34:58;98626.81;;;20.57;40.37
72950;BME280;64868;45.710;9.590;2023-03-24T14:37:31;98621.53;;;21.23;39.54
72950;BME280;64868;45.710;9.590;2023-03-24T14:40:04;98621.28;;;21.62;39.11
72950;BME280;64868;45.710;9.590;2023-03-24T14:48:02;98573.72;;;19.37;43.06
72950;BME280;64868;45.710;9.590;2023-03-24T14:50:37;98594.53;;;19.08;43.87
72950;BME280;64868;45.710;9.590;2023-03-24T14:53:19;98591.38;;;19.28;43.62
72950;BME280;64868;45.710;9.590;2023-03-24T14:55:50;98585.63;;;19.37;43.54
72950;BME280;64868;45.710;9.590;2023-03-24T14:58:39;98573.94;;;19.19;43.71
72950;BME280;64868;45.710;9.590;2023-03-24T15:01:13;98589.00;;;19.64;43.86
72950;BME280;64868;45.710;9.590;2023-03-24T15:03:52;98602.47;;;19.67;42.72
72950;BME280;64868;45.710;9.590;2023-03-24T15:06:26;98588.72;;;20.13;42.66
72950;BME280;64868;45.710;9.590;2023-03-24T15:08:58;98600.56;;;19.99;41.62
72950;BME280;64868;45.710;9.590;2023-03-24T15:11:30;98597.16;;;19.97;42.48
72950;BME280;64868;45.710;9.590;2023-03-24T15:14:01;98601.22;;;20.09;41.75
72950;BME280;64868;45.710;9.590;2023-03-24T15:16:35;98603.16;;;19.61;42.57
72950;BME280;64868;45.710;9.590;2023-03-24T15:19:08;98602.84;;;19.56;43.19
72950;BME280;64868;45.710;9.590;2023-03-24T15:21:47;98604.47;;;20.12;42.18
72950;BME280;64868;45.710;9.590;2023-03-24T15:24:32;98614.78;;;20.18;41.43
72950;BME280;64868;45.710;9.590;2023-03-24T15:27:17;98582.28;;;19.66;41.64
72950;BME280;64868;45.710;9.590;2023-03-24T15:29:54;98587.75;;;19.27;42.62